sensor_id;sensor_type;location;lat;lon;timestamp;temperature;humidity
14924;DHT22;7554;43.600;1.480;2022-12-29T00:00:21;9.40;1.00
14924;DHT22;7554;43.600;1.480;2022-12-29T00:02:48;9.40;1.00
14924;DHT22;7554;43.600;1.480;2022-12-29T00:05:16;9.40;1.00
14924;DHT22;7554;43.600;1.480;2022-12-29T00:07:45;9.40;1.00
14924;DHT22;7554;43.600;1.480;2022-12-29T00:10:12;9.40;1.00
14924;DHT22;7554;43.600;1.480;2022-12-29T00:12:39;9.40;1.00
14924;DHT22;7554;43.600;1.480;2022-12-29T00:15:24;9.40;1.00
14924;DHT22;7554;43.600;1.480;2022-12-29T00:18:04;9.40;1.00
14924;DHT22;7554;43.600;1.480;2022-12-29T00:20:33;9.40;1.00
14924;DHT22;7554;43.600;1.480;2022-12-29T00:23:20;9.40;1.00
14924;DHT22;7554;43.600;1.480;2022-12-29T00:26:12;9.40;1.00
14924;DHT22;7554;43.600;1.480;2022-12-29T00:28:57;9.50;1.00
14924;DHT22;7554;43.600;1.480;2022-12-29T00:31:41;9.50;1.00
14924;DHT22;7554;43.600;1.480;2022-12-29T00:34:26;9.50;1.00
14924;DHT22;7554;43.600;1.480;2022-12-29T00:37:10;9.50;1.00
14924;DHT22;7554;43.600;1.480;2022-12-29T00:39:42;9.50;1.00
14924;DHT22;7554;43.600;1.480;2022-12-29T00:42:27;9.50;1.00
14924;DHT22;7554;43.600;1.480;2022-12-29T00:45:14;9.50;1.00
14924;DHT22;7554;43.600;1.480;2022-12-29T00:47:42;9.50;1.00
14924;DHT22;7554;43.600;1.480;2022-12-29T00:50:09;9.50;1.00
14924;DHT22;7554;43.600;1.480;2022-12-29T00:52:36;9.50;1.00
14924;DHT22;7554;43.600;1.480;2022-12-29T00:55:05;9.60;1.00
14924;DHT22;7554;43.600;1.480;2022-12-29T00:57:33;9.60;1.00
14924;DHT22;7554;43.600;1.480;2022-12-29T01:00:00;9.60;1.00
14924;DHT22;7554;43.600;1.480;2022-12-29T01:02:29;9.60;1.00
14924;DHT22;7554;43.600;1.480;2022-12-29T01:04:56;9.60;1.00
14924;DHT22;7554;43.600;1.480;2022-12-29T01:07:23;9.60;1.00
14924;DHT22;7554;43.600;1.480;2022-12-29T01:09:51;9.60;1.00
14924;DHT22;7554;43.600;1.480;2022-12-29T01:12:37;9.60;1.00
14924;DHT22;7554;43.600;1.480;2022-12-29T01:15:09;9.60;1.00
14924;DHT22;7554;43.600;1.480;2022-12-29T01:17:37;9.60;1.00
14924;DHT22;7554;43.600;1.480;2022-12-29T01:20:05;9.60;1.00
14924;DHT22;7554;43.600;1.480;2022-12-29T01:22:32;9.60;1.00
14924;DHT22;7554;43.600;1.480;2022-12-29T01:25:00;9.60;1.00
14924;DHT22;7554;43.600;1.480;2022-12-29T01:27:28;9.60;1.00
14924;DHT22;7554;43.600;1.480;2022-12-29T01:29:57;9.60;1.00
14924;DHT22;7554;43.600;1.480;2022-12-29T01:32:24;9.60;1.00
14924;DHT22;7554;43.600;1.480;2022-12-29T01:34:51;9.60;1.00
14924;DHT22;7554;43.600;1.480;2022-12-29T01:37:19;9.60;1.00
14924;DHT22;7554;43.600;1.480;2022-12-29T01:39:46;9.60;1.00
14924;DHT22;7554;43.600;1.480;2022-12-29T01:42:17;9.60;1.00
14924;DHT22;7554;43.600;1.480;2022-12-29T01:44:53;9.60;1.00
14924;DHT22;7554;43.600;1.480;2022-12-29T01:47:35;9.60;1.00
14924;DHT22;7554;43.600;1.480;2022-12-29T01:50:08;9.60;1.00
14924;DHT22;7554;43.600;1.480;2022-12-29T01:52:40;9.60;1.00
14924;DHT22;7554;43.600;1.480;2022-12-29T01:55:11;9.50;1.00
14924;DHT22;7554;43.600;1.480;2022-12-29T01:57:41;9.60;1.00
14924;DHT22;7554;43.600;1.480;2022-12-29T02:00:12;9.60;1.00
14924;DHT22;7554;43.600;1.480;2022-12-29T02:02:44;9.60;1.00
14924;DHT22;7554;43.600;1.480;2022-12-29T02:05:18;9.60;1.00
14924;DHT22;7554;43.600;1.480;2022-12-29T02:07:48;9.60;1.00
14924;DHT22;7554;43.600;1.480;2022-12-29T02:10:15;9.60;1.00
14924;DHT22;7554;43.600;1.480;2022-12-29T02:12:44;9.60;1.00
14924;DHT22;7554;43.600;1.480;2022-12-29T02:15:12;9.60;1.00
14924;DHT22;7554;43.600;1.480;2022-12-29T02:18:02;9.60;1.00
14924;DHT22;7554;43.600;1.480;2022-12-29T02:24:01;9.60;1.00
14924;DHT22;7554;43.600;1.480;2022-12-29T02:29:49;9.70;1.00
14924;DHT22;7554;43.600;1.480;2022-12-29T02:32:30;9.60;1.00
14924;DHT22;7554;43.600;1.480;2022-12-29T02:35:06;9.60;1.00
14924;DHT22;7554;43.600;1.480;2022-12-29T02:37:42;9.70;1.00
14924;DHT22;7554;43.600;1.480;2022-12-29T02:40:20;9.60;1.00
14924;DHT22;7554;43.600;1.480;2022-12-29T02:42:51;9.60;1.00
14924;DHT22;7554;43.600;1.480;2022-12-29T02:45:29;9.60;1.00
14924;DHT22;7554;43.600;1.480;2022-12-29T02:48:06;9.60;1.00
14924;DHT22;7554;43.600;1.480;2022-12-29T02:50:38;9.60;1.00
14924;DHT22;7554;43.600;1.480;2022-12-29T02:53:09;9.70;1.00
14924;DHT22;7554;43.600;1.480;2022-12-29T02:55:38;9.70;1.00
14924;DHT22;7554;43.600;1.480;2022-12-29T02:58:17;9.70;1.00
14924;DHT22;7554;43.600;1.480;2022-12-29T03:01:01;9.70;1.00
14924;DHT22;7554;43.600;1.480;2022-12-29T03:03:44;9.70;1.00
14924;DHT22;7554;43.600;1.480;2022-12-29T03:06:25;9.70;1.00
14924;DHT22;7554;43.600;1.480;2022-12-29T03:09:04;9.70;1.00
14924;DHT22;7554;43.600;1.480;2022-12-29T03:11:43;9.70;1.00
14924;DHT22;7554;43.600;1.480;2022-12-29T03:14:33;9.70;1.00
14924;DHT22;7554;43.600;1.480;2022-12-29T03:17:26;9.70;1.00
14924;DHT22;7554;43.600;1.480;2022-12-29T03:20:02;9.70;1.00
14924;DHT22;7554;43.600;1.480;2022-12-29T03:22:36;9.80;1.00
14924;DHT22;7554;43.600;1.480;2022-12-29T03:25:09;9.80;1.00
14924;DHT22;7554;43.600;1.480;2022-12-29T03:27:41;9.90;1.00
14924;DHT22;7554;43.600;1.480;2022-12-29T03:30:10;9.90;1.00
14924;DHT22;7554;43.600;1.480;2022-12-29T03:32:42;9.90;1.00
14924;DHT22;7554;43.600;1.480;2022-12-29T03:35:15;9.90;1.00
14924;DHT22;7554;43.600;1.480;2022-12-29T03:37:46;10.00;1.00
14924;DHT22;7554;43.600;1.480;2022-12-29T03:40:18;10.00;1.00
14924;DHT22;7554;43.600;1.480;2022-12-29T03:42:47;10.00;1.00
14924;DHT22;7554;43.600;1.480;2022-12-29T03:45:15;10.00;1.00
14924;DHT22;7554;43.600;1.480;2022-12-29T03:47:42;10.00;1.00
14924;DHT22;7554;43.600;1.480;2022-12-29T03:50:13;10.00;1.00
14924;DHT22;7554;43.600;1.480;2022-12-29T03:52:41;10.00;1.00
14924;DHT22;7554;43.600;1.480;2022-12-29T03:55:09;10.00;1.00
14924;DHT22;7554;43.600;1.480;2022-12-29T03:57:36;10.00;1.00
14924;DHT22;7554;43.600;1.480;2022-12-29T04:00:05;10.10;1.00
14924;DHT22;7554;43.600;1.480;2022-12-29T04:02:33;10.00;1.00
14924;DHT22;7554;43.600;1.480;2022-12-29T04:05:01;10.00;1.00
14924;DHT22;7554;43.600;1.480;2022-12-29T04:07:30;10.10;1.00
14924;DHT22;7554;43.600;1.480;2022-12-29T04:09:57;10.10;1.00
14924;DHT22;7554;43.600;1.480;2022-12-29T04:12:25;10.10;1.00
14924;DHT22;7554;43.600;1.480;2022-12-29T04:14:52;10.10;1.00
14924;DHT22;7554;43.600;1.480;2022-12-29T04:17:20;10.10;1.00
14924;DHT22;7554;43.600;1.480;2022-12-29T04:19:47;10.10;1.00
14924;DHT22;7554;43.600;1.480;2022-12-29T04:22:14;10.10;1.00
14924;DHT22;7554;43.600;1.480;2022-12-29T04:24:43;10.10;1.00
14924;DHT22;7554;43.600;1.480;2022-12-29T04:27:11;10.10;1.00
14924;DHT22;7554;43.600;1.480;2022-12-29T04:29:39;10.10;1.00
14924;DHT22;7554;43.600;1.480;2022-12-29T04:32:06;10.10;1.00
14924;DHT22;7554;43.600;1.480;2022-12-29T04:34:34;10.10;1.00
14924;DHT22;7554;43.600;1.480;2022-12-29T04:37:01;10.10;1.00
14924;DHT22;7554;43.600;1.480;2022-12-29T04:39:29;10.00;1.00
14924;DHT22;7554;43.600;1.480;2022-12-29T04:41:57;10.00;1.00
14924;DHT22;7554;43.600;1.480;2022-12-29T04:44:25;10.10;1.00
14924;DHT22;7554;43.600;1.480;2022-12-29T04:46:52;10.10;1.00
14924;DHT22;7554;43.600;1.480;2022-12-29T04:49:20;10.10;1.00
14924;DHT22;7554;43.600;1.480;2022-12-29T04:51:48;10.10;1.00
14924;DHT22;7554;43.600;1.480;2022-12-29T04:54:15;10.10;1.00
14924;DHT22;7554;43.600;1.480;2022-12-29T04:56:43;10.10;1.00
14924;DHT22;7554;43.600;1.480;2022-12-29T04:59:11;10.10;1.00
14924;DHT22;7554;43.600;1.480;2022-12-29T05:01:39;10.20;1.00
14924;DHT22;7554;43.600;1.480;2022-12-29T05:04:08;10.20;1.00
14924;DHT22;7554;43.600;1.480;2022-12-29T05:06:35;10.20;1.00
14924;DHT22;7554;43.600;1.480;2022-12-29T05:09:02;10.20;1.00
14924;DHT22;7554;43.600;1.480;2022-12-29T05:11:30;10.20;1.00
14924;DHT22;7554;43.600;1.480;2022-12-29T05:13:57;10.20;1.00
14924;DHT22;7554;43.600;1.480;2022-12-29T05:16:26;10.20;1.00
14924;DHT22;7554;43.600;1.480;2022-12-29T05:18:54;10.20;1.00
14924;DHT22;7554;43.600;1.480;2022-12-29T05:21:21;10.20;1.00
14924;DHT22;7554;43.600;1.480;2022-12-29T05:23:49;10.20;1.00
14924;DHT22;7554;43.600;1.480;2022-12-29T05:26:16;10.20;1.00
14924;DHT22;7554;43.600;1.480;2022-12-29T05:28:44;10.20;1.00
14924;DHT22;7554;43.600;1.480;2022-12-29T05:31:11;10.20;1.00
14924;DHT22;7554;43.600;1.480;2022-12-29T05:33:40;10.20;1.00
14924;DHT22;7554;43.600;1.480;2022-12-29T05:36:09;10.20;1.00
14924;DHT22;7554;43.600;1.480;2022-12-29T05:38:37;10.30;1.00
14924;DHT22;7554;43.600;1.480;2022-12-29T05:41:04;10.30;1.00
14924;DHT22;7554;43.600;1.480;2022-12-29T05:43:32;10.30;1.00
14924;DHT22;7554;43.600;1.480;2022-12-29T05:45:59;10.30;1.00
14924;DHT22;7554;43.600;1.480;2022-12-29T05:48:27;10.30;1.00
14924;DHT22;7554;43.600;1.480;2022-12-29T05:50:56;10.30;1.00
14924;DHT22;7554;43.600;1.480;2022-12-29T05:53:23;10.30;1.00
14924;DHT22;7554;43.600;1.480;2022-12-29T05:55:50;10.30;1.00
14924;DHT22;7554;43.600;1.480;2022-12-29T05:58:18;10.30;1.00
14924;DHT22;7554;43.600;1.480;2022-12-29T06:00:45;10.30;1.00
14924;DHT22;7554;43.600;1.480;2022-12-29T06:03:13;10.30;1.00
14924;DHT22;7554;43.600;1.480;2022-12-29T06:05:40;10.40;1.00
14924;DHT22;7554;43.600;1.480;2022-12-29T06:08:09;10.40;1.00
14924;DHT22;7554;43.600;1.480;2022-12-29T06:10:37;10.40;1.00
14924;DHT22;7554;43.600;1.480;2022-12-29T06:13:04;10.40;1.00
14924;DHT22;7554;43.600;1.480;2022-12-29T06:15:32;10.30;1.00
14924;DHT22;7554;43.600;1.480;2022-12-29T06:18:00;10.20;1.00
14924;DHT22;7554;43.600;1.480;2022-12-29T06:20:28;10.20;1.00
14924;DHT22;7554;43.600;1.480;2022-12-29T06:22:55;10.20;1.00
14924;DHT22;7554;43.600;1.480;2022-12-29T06:25:24;10.20;1.00
14924;DHT22;7554;43.600;1.480;2022-12-29T06:27:52;10.20;1.00
14924;DHT22;7554;43.600;1.480;2022-12-29T06:30:19;10.20;1.00
14924;DHT22;7554;43.600;1.480;2022-12-29T06:32:47;10.20;1.00
14924;DHT22;7554;43.600;1.480;2022-12-29T06:35:15;10.10;1.00
14924;DHT22;7554;43.600;1.480;2022-12-29T06:37:42;10.00;1.00
14924;DHT22;7554;43.600;1.480;2022-12-29T06:40:10;10.00;1.00
14924;DHT22;7554;43.600;1.480;2022-12-29T06:42:39;10.00;1.00
14924;DHT22;7554;43.600;1.480;2022-12-29T06:45:07;9.90;1.00
14924;DHT22;7554;43.600;1.480;2022-12-29T06:47:35;9.90;1.00
14924;DHT22;7554;43.600;1.480;2022-12-29T06:50:03;9.90;1.00
14924;DHT22;7554;43.600;1.480;2022-12-29T06:52:31;9.90;1.00
14924;DHT22;7554;43.600;1.480;2022-12-29T06:54:59;9.90;1.00
14924;DHT22;7554;43.600;1.480;2022-12-29T06:57:26;9.90;1.00
14924;DHT22;7554;43.600;1.480;2022-12-29T06:59:55;9.90;1.00
14924;DHT22;7554;43.600;1.480;2022-12-29T07:02:23;9.90;1.00
14924;DHT22;7554;43.600;1.480;2022-12-29T07:04:51;9.90;1.00
14924;DHT22;7554;43.600;1.480;2022-12-29T07:07:19;9.90;1.00
14924;DHT22;7554;43.600;1.480;2022-12-29T07:09:47;9.90;1.00
14924;DHT22;7554;43.600;1.480;2022-12-29T07:12:14;9.90;1.00
14924;DHT22;7554;43.600;1.480;2022-12-29T07:14:41;9.90;1.00
14924;DHT22;7554;43.600;1.480;2022-12-29T07:17:10;9.90;1.00
14924;DHT22;7554;43.600;1.480;2022-12-29T07:19:38;9.90;1.00
14924;DHT22;7554;43.600;1.480;2022-12-29T07:22:05;9.90;1.00
14924;DHT22;7554;43.600;1.480;2022-12-29T07:24:33;9.90;1.00
14924;DHT22;7554;43.600;1.480;2022-12-29T07:27:01;9.90;1.00
14924;DHT22;7554;43.600;1.480;2022-12-29T07:29:28;9.90;1.00
14924;DHT22;7554;43.600;1.480;2022-12-29T07:31:55;9.90;1.00
14924;DHT22;7554;43.600;1.480;2022-12-29T07:34:25;9.90;1.00
14924;DHT22;7554;43.600;1.480;2022-12-29T07:36:52;9.90;1.00
14924;DHT22;7554;43.600;1.480;2022-12-29T07:39:20;9.90;1.00
14924;DHT22;7554;43.600;1.480;2022-12-29T07:41:47;10.00;1.00
14924;DHT22;7554;43.600;1.480;2022-12-29T07:44:15;10.00;1.00
14924;DHT22;7554;43.600;1.480;2022-12-29T07:46:42;10.00;1.00
14924;DHT22;7554;43.600;1.480;2022-12-29T07:49:09;10.00;1.00
14924;DHT22;7554;43.600;1.480;2022-12-29T07:51:38;10.10;1.00
14924;DHT22;7554;43.600;1.480;2022-12-29T07:54:06;10.20;1.00
14924;DHT22;7554;43.600;1.480;2022-12-29T07:56:33;10.40;1.00
14924;DHT22;7554;43.600;1.480;2022-12-29T07:59:01;10.40;1.00
14924;DHT22;7554;43.600;1.480;2022-12-29T08:01:28;10.50;1.00
14924;DHT22;7554;43.600;1.480;2022-12-29T08:03:56;10.50;1.00
14924;DHT22;7554;43.600;1.480;2022-12-29T08:06:23;10.50;1.00
14924;DHT22;7554;43.600;1.480;2022-12-29T08:08:52;10.60;1.00
14924;DHT22;7554;43.600;1.480;2022-12-29T08:11:22;10.60;1.00
14924;DHT22;7554;43.600;1.480;2022-12-29T08:13:50;10.60;1.00
14924;DHT22;7554;43.600;1.480;2022-12-29T08:16:17;10.60;1.00
14924;DHT22;7554;43.600;1.480;2022-12-29T08:18:45;10.60;1.00
14924;DHT22;7554;43.600;1.480;2022-12-29T08:21:12;10.60;1.00
14924;DHT22;7554;43.600;1.480;2022-12-29T08:23:40;10.60;1.00
14924;DHT22;7554;43.600;1.480;2022-12-29T08:26:10;10.70;1.00
14924;DHT22;7554;43.600;1.480;2022-12-29T08:28:37;10.70;1.00
14924;DHT22;7554;43.600;1.480;2022-12-29T08:31:05;10.70;1.00
14924;DHT22;7554;43.600;1.480;2022-12-29T08:33:32;10.80;1.00
14924;DHT22;7554;43.600;1.480;2022-12-29T08:36:00;10.90;1.00
14924;DHT22;7554;43.600;1.480;2022-12-29T08:38:29;11.00;1.00
14924;DHT22;7554;43.600;1.480;2022-12-29T08:40:57;11.00;1.00
14924;DHT22;7554;43.600;1.480;2022-12-29T08:43:27;11.10;1.00
14924;DHT22;7554;43.600;1.480;2022-12-29T08:45:55;11.10;1.00
14924;DHT22;7554;43.600;1.480;2022-12-29T08:48:22;11.10;1.00
14924;DHT22;7554;43.600;1.480;2022-12-29T08:50:50;11.20;1.00
14924;DHT22;7554;43.600;1.480;2022-12-29T08:53:18;11.20;1.00
14924;DHT22;7554;43.600;1.480;2022-12-29T08:55:46;11.10;1.00
14924;DHT22;7554;43.600;1.480;2022-12-29T08:58:14;11.10;1.00
14924;DHT22;7554;43.600;1.480;2022-12-29T09:00:44;11.20;1.00
14924;DHT22;7554;43.600;1.480;2022-12-29T09:03:11;11.10;1.00
14924;DHT22;7554;43.600;1.480;2022-12-29T09:05:39;11.20;1.00
14924;DHT22;7554;43.600;1.480;2022-12-29T09:08:06;11.20;1.00
14924;DHT22;7554;43.600;1.480;2022-12-29T09:10:33;11.20;1.00
14924;DHT22;7554;43.600;1.480;2022-12-29T09:13:01;11.20;1.00
14924;DHT22;7554;43.600;1.480;2022-12-29T09:15:28;11.20;1.00
14924;DHT22;7554;43.600;1.480;2022-12-29T09:17:57;11.30;1.00
14924;DHT22;7554;43.600;1.480;2022-12-29T09:20:25;11.40;1.00
14924;DHT22;7554;43.600;1.480;2022-12-29T09:22:52;11.40;1.00
14924;DHT22;7554;43.600;1.480;2022-12-29T09:25:20;11.40;1.00
14924;DHT22;7554;43.600;1.480;2022-12-29T09:27:50;11.50;1.00
14924;DHT22;7554;43.600;1.480;2022-12-29T09:30:20;11.50;1.00
14924;DHT22;7554;43.600;1.480;2022-12-29T09:32:48;11.50;1.00
14924;DHT22;7554;43.600;1.480;2022-12-29T09:35:17;11.50;1.00
14924;DHT22;7554;43.600;1.480;2022-12-29T09:37:47;11.60;1.00
14924;DHT22;7554;43.600;1.480;2022-12-29T09:40:29;11.60;1.00
14924;DHT22;7554;43.600;1.480;2022-12-29T09:43:10;11.70;1.00
14924;DHT22;7554;43.600;1.480;2022-12-29T09:45:43;11.70;1.00
14924;DHT22;7554;43.600;1.480;2022-12-29T09:48:16;11.70;1.00
14924;DHT22;7554;43.600;1.480;2022-12-29T09:50:49;11.70;1.00
14924;DHT22;7554;43.600;1.480;2022-12-29T09:53:21;11.80;1.00
14924;DHT22;7554;43.600;1.480;2022-12-29T09:55:53;11.90;1.00
14924;DHT22;7554;43.600;1.480;2022-12-29T09:58:24;11.80;1.00
14924;DHT22;7554;43.600;1.480;2022-12-29T10:01:00;11.90;1.00
14924;DHT22;7554;43.600;1.480;2022-12-29T10:03:40;11.80;1.00
14924;DHT22;7554;43.600;1.480;2022-12-29T10:06:13;11.80;1.00
14924;DHT22;7554;43.600;1.480;2022-12-29T10:08:47;11.70;1.00
14924;DHT22;7554;43.600;1.480;2022-12-29T10:11:26;11.70;1.00
14924;DHT22;7554;43.600;1.480;2022-12-29T10:14:13;11.80;1.00
14924;DHT22;7554;43.600;1.480;2022-12-29T10:16:47;11.80;1.00
14924;DHT22;7554;43.600;1.480;2022-12-29T10:19:29;11.90;1.00
14924;DHT22;7554;43.600;1.480;2022-12-29T10:22:12;12.10;1.00
14924;DHT22;7554;43.600;1.480;2022-12-29T10:24:45;12.20;1.00
14924;DHT22;7554;43.600;1.480;2022-12-29T10:27:15;12.30;1.00
14924;DHT22;7554;43.600;1.480;2022-12-29T10:29:49;12.40;1.00
14924;DHT22;7554;43.600;1.480;2022-12-29T10:32:25;12.50;1.00
14924;DHT22;7554;43.600;1.480;2022-12-29T10:34:56;12.60;1.00
14924;DHT22;7554;43.600;1.480;2022-12-29T10:37:32;12.70;1.00
14924;DHT22;7554;43.600;1.480;2022-12-29T10:40:10;12.70;1.00
14924;DHT22;7554;43.600;1.480;2022-12-29T10:42:42;12.70;1.00
14924;DHT22;7554;43.600;1.480;2022-12-29T10:45:13;12.70;1.00
14924;DHT22;7554;43.600;1.480;2022-12-29T10:57:04;12.60;1.00
14924;DHT22;7554;43.600;1.480;2022-12-29T10:59:36;12.70;1.00
14924;DHT22;7554;43.600;1.480;2022-12-29T11:02:38;12.70;1.00
14924;DHT22;7554;43.600;1.480;2022-12-29T11:05:55;12.70;1.00
14924;DHT22;7554;43.600;1.480;2022-12-29T11:08:33;12.80;1.00
14924;DHT22;7554;43.600;1.480;2022-12-29T11:11:03;12.90;1.00
14924;DHT22;7554;43.600;1.480;2022-12-29T11:13:34;12.80;1.00
14924;DHT22;7554;43.600;1.480;2022-12-29T11:16:02;13.00;1.00
14924;DHT22;7554;43.600;1.480;2022-12-29T11:18:35;13.10;1.00
14924;DHT22;7554;43.600;1.480;2022-12-29T11:21:05;13.10;1.00
14924;DHT22;7554;43.600;1.480;2022-12-29T11:23:34;13.10;1.00
14924;DHT22;7554;43.600;1.480;2022-12-29T11:26:13;13.00;1.00
14924;DHT22;7554;43.600;1.480;2022-12-29T11:28:44;13.00;1.00
14924;DHT22;7554;43.600;1.480;2022-12-29T11:31:16;13.00;1.00
14924;DHT22;7554;43.600;1.480;2022-12-29T11:33:44;13.00;1.00
14924;DHT22;7554;43.600;1.480;2022-12-29T11:36:15;13.00;1.00
14924;DHT22;7554;43.600;1.480;2022-12-29T11:38:48;13.10;1.00
14924;DHT22;7554;43.600;1.480;2022-12-29T11:41:22;13.20;1.00
14924;DHT22;7554;43.600;1.480;2022-12-29T11:43:52;13.40;1.00
14924;DHT22;7554;43.600;1.480;2022-12-29T11:46:23;13.50;1.00
14924;DHT22;7554;43.600;1.480;2022-12-29T11:48:51;13.60;1.00
14924;DHT22;7554;43.600;1.480;2022-12-29T11:51:22;13.60;1.00
14924;DHT22;7554;43.600;1.480;2022-12-29T11:53:56;13.50;1.00
14924;DHT22;7554;43.600;1.480;2022-12-29T11:56:34;13.50;1.00
14924;DHT22;7554;43.600;1.480;2022-12-29T12:02:23;13.60;1.00
14924;DHT22;7554;43.600;1.480;2022-12-29T12:04:57;13.40;1.00
14924;DHT22;7554;43.600;1.480;2022-12-29T12:07:42;13.50;1.00
14924;DHT22;7554;43.600;1.480;2022-12-29T12:10:23;13.50;1.00
14924;DHT22;7554;43.600;1.480;2022-12-29T12:13:02;13.60;1.00
14924;DHT22;7554;43.600;1.480;2022-12-29T12:15:36;13.60;1.00
14924;DHT22;7554;43.600;1.480;2022-12-29T12:18:11;13.70;1.00
14924;DHT22;7554;43.600;1.480;2022-12-29T12:20:47;13.90;1.00
14924;DHT22;7554;43.600;1.480;2022-12-29T12:23:25;14.00;1.00
14924;DHT22;7554;43.600;1.480;2022-12-29T12:25:59;14.10;1.00
14924;DHT22;7554;43.600;1.480;2022-12-29T12:28:37;14.00;1.00
14924;DHT22;7554;43.600;1.480;2022-12-29T12:31:15;14.00;1.00
14924;DHT22;7554;43.600;1.480;2022-12-29T12:33:47;14.10;1.00
14924;DHT22;7554;43.600;1.480;2022-12-29T12:36:37;14.00;1.00
14924;DHT22;7554;43.600;1.480;2022-12-29T12:39:12;13.90;1.00
14924;DHT22;7554;43.600;1.480;2022-12-29T12:41:53;13.90;1.00
14924;DHT22;7554;43.600;1.480;2022-12-29T12:44:27;14.00;1.00
14924;DHT22;7554;43.600;1.480;2022-12-29T12:47:14;14.10;1.00
14924;DHT22;7554;43.600;1.480;2022-12-29T12:50:19;14.30;1.00
14924;DHT22;7554;43.600;1.480;2022-12-29T12:53:13;14.30;1.00
14924;DHT22;7554;43.600;1.480;2022-12-29T12:55:53;14.40;1.00
14924;DHT22;7554;43.600;1.480;2022-12-29T12:58:30;14.40;1.00
14924;DHT22;7554;43.600;1.480;2022-12-29T13:01:11;14.30;1.00
14924;DHT22;7554;43.600;1.480;2022-12-29T13:03:51;14.30;1.00
14924;DHT22;7554;43.600;1.480;2022-12-29T13:06:34;14.30;1.00
14924;DHT22;7554;43.600;1.480;2022-12-29T13:09:27;14.30;1.00
14924;DHT22;7554;43.600;1.480;2022-12-29T13:12:07;14.20;1.00
14924;DHT22;7554;43.600;1.480;2022-12-29T13:14:46;14.10;1.00
14924;DHT22;7554;43.600;1.480;2022-12-29T13:17:24;14.00;1.00
14924;DHT22;7554;43.600;1.480;2022-12-29T13:19:55;14.10;1.00
14924;DHT22;7554;43.600;1.480;2022-12-29T13:22:32;14.00;1.00
14924;DHT22;7554;43.600;1.480;2022-12-29T13:25:17;14.00;1.00
14924;DHT22;7554;43.600;1.480;2022-12-29T13:27:53;14.00;1.00
14924;DHT22;7554;43.600;1.480;2022-12-29T13:30:26;14.00;1.00
14924;DHT22;7554;43.600;1.480;2022-12-29T13:33:03;14.00;1.00
14924;DHT22;7554;43.600;1.480;2022-12-29T13:35:49;14.00;1.00
14924;DHT22;7554;43.600;1.480;2022-12-29T13:38:24;14.00;1.00
14924;DHT22;7554;43.600;1.480;2022-12-29T13:40:55;14.10;1.00
14924;DHT22;7554;43.600;1.480;2022-12-29T13:43:25;14.10;1.00
14924;DHT22;7554;43.600;1.480;2022-12-29T13:46:01;14.10;1.00
14924;DHT22;7554;43.600;1.480;2022-12-29T13:48:37;14.10;1.00
14924;DHT22;7554;43.600;1.480;2022-12-29T13:51:08;14.10;1.00
14924;DHT22;7554;43.600;1.480;2022-12-29T13:53:42;14.10;1.00
14924;DHT22;7554;43.600;1.480;2022-12-29T13:56:22;14.20;1.00
14924;DHT22;7554;43.600;1.480;2022-12-29T13:58:56;14.30;1.00
14924;DHT22;7554;43.600;1.480;2022-12-29T14:01:30;14.30;1.00
14924;DHT22;7554;43.600;1.480;2022-12-29T14:04:03;14.30;1.00
14924;DHT22;7554;43.600;1.480;2022-12-29T14:06:37;14.30;1.00
14924;DHT22;7554;43.600;1.480;2022-12-29T14:09:31;14.30;1.00
14924;DHT22;7554;43.600;1.480;2022-12-29T14:12:01;14.30;1.00
14924;DHT22;7554;43.600;1.480;2022-12-29T14:26:09;14.50;1.00
14924;DHT22;7554;43.600;1.480;2022-12-29T14:28:46;14.50;1.00
14924;DHT22;7554;43.600;1.480;2022-12-29T14:31:34;14.60;1.00
14924;DHT22;7554;43.600;1.480;2022-12-29T14:34:38;14.60;1.00
14924;DHT22;7554;43.600;1.480;2022-12-29T14:37:23;14.70;1.00
14924;DHT22;7554;43.600;1.480;2022-12-29T14:40:04;14.60;1.00
14924;DHT22;7554;43.600;1.480;2022-12-29T14:42:38;14.60;1.00
14924;DHT22;7554;43.600;1.480;2022-12-29T14:45:08;14.60;1.00
14924;DHT22;7554;43.600;1.480;2022-12-29T14:47:52;14.50;1.00
14924;DHT22;7554;43.600;1.480;2022-12-29T14:50:24;14.40;1.00
14924;DHT22;7554;43.600;1.480;2022-12-29T14:52:53;14.40;1.00
14924;DHT22;7554;43.600;1.480;2022-12-29T14:55:37;14.30;1.00
14924;DHT22;7554;43.600;1.480;2022-12-29T14:58:13;14.20;1.00
14924;DHT22;7554;43.600;1.480;2022-12-29T15:00:42;14.20;1.00
14924;DHT22;7554;43.600;1.480;2022-12-29T15:03:17;14.10;1.00
14924;DHT22;7554;43.600;1.480;2022-12-29T15:05:46;14.00;1.00
14924;DHT22;7554;43.600;1.480;2022-12-29T15:08:18;13.90;1.00
14924;DHT22;7554;43.600;1.480;2022-12-29T15:10:51;13.90;1.00
14924;DHT22;7554;43.600;1.480;2022-12-29T15:13:36;13.80;1.00
14924;DHT22;7554;43.600;1.480;2022-12-29T15:16:04;13.80;1.00
14924;DHT22;7554;43.600;1.480;2022-12-29T15:18:36;13.80;1.00
14924;DHT22;7554;43.600;1.480;2022-12-29T15:21:13;13.80;1.00
14924;DHT22;7554;43.600;1.480;2022-12-29T15:23:43;13.80;1.00
14924;DHT22;7554;43.600;1.480;2022-12-29T15:26:12;13.70;1.00
14924;DHT22;7554;43.600;1.480;2022-12-29T15:32:28;13.60;1.00
14924;DHT22;7554;43.600;1.480;2022-12-29T15:34:57;13.60;1.00
14924;DHT22;7554;43.600;1.480;2022-12-29T15:37:27;13.60;1.00
14924;DHT22;7554;43.600;1.480;2022-12-29T15:39:56;13.60;1.00
14924;DHT22;7554;43.600;1.480;2022-12-29T15:42:50;13.50;1.00
14924;DHT22;7554;43.600;1.480;2022-12-29T15:45:35;13.40;1.00
14924;DHT22;7554;43.600;1.480;2022-12-29T15:48:04;13.30;1.00
14924;DHT22;7554;43.600;1.480;2022-12-29T15:50:34;13.30;1.00
14924;DHT22;7554;43.600;1.480;2022-12-29T15:53:10;13.20;1.00
14924;DHT22;7554;43.600;1.480;2022-12-29T15:55:41;13.20;1.00
14924;DHT22;7554;43.600;1.480;2022-12-29T15:58:19;13.10;1.00
14924;DHT22;7554;43.600;1.480;2022-12-29T16:00:50;13.10;1.00
14924;DHT22;7554;43.600;1.480;2022-12-29T16:03:20;13.10;1.00
14924;DHT22;7554;43.600;1.480;2022-12-29T16:06:08;13.10;1.00
14924;DHT22;7554;43.600;1.480;2022-12-29T16:08:37;13.10;1.00
14924;DHT22;7554;43.600;1.480;2022-12-29T16:11:22;13.10;1.00
14924;DHT22;7554;43.600;1.480;2022-12-29T16:13:52;13.00;1.00
14924;DHT22;7554;43.600;1.480;2022-12-29T16:16:29;13.00;1.00
14924;DHT22;7554;43.600;1.480;2022-12-29T16:18:58;12.90;1.00
14924;DHT22;7554;43.600;1.480;2022-12-29T16:21:27;12.90;1.00
14924;DHT22;7554;43.600;1.480;2022-12-29T16:24:00;12.90;1.00
14924;DHT22;7554;43.600;1.480;2022-12-29T16:26:28;12.70;1.00
14924;DHT22;7554;43.600;1.480;2022-12-29T16:28:58;12.70;1.00
14924;DHT22;7554;43.600;1.480;2022-12-29T16:31:33;12.70;1.00
14924;DHT22;7554;43.600;1.480;2022-12-29T16:34:12;12.70;1.00
14924;DHT22;7554;43.600;1.480;2022-12-29T16:36:51;12.70;1.00
14924;DHT22;7554;43.600;1.480;2022-12-29T16:39:30;12.70;1.00
14924;DHT22;7554;43.600;1.480;2022-12-29T16:41:58;12.70;1.00
14924;DHT22;7554;43.600;1.480;2022-12-29T16:44:27;12.60;1.00
14924;DHT22;7554;43.600;1.480;2022-12-29T16:47:18;12.50;1.00
14924;DHT22;7554;43.600;1.480;2022-12-29T16:49:51;12.30;1.00
14924;DHT22;7554;43.600;1.480;2022-12-29T16:52:22;11.80;1.00
14924;DHT22;7554;43.600;1.480;2022-12-29T16:54:55;11.70;1.00
14924;DHT22;7554;43.600;1.480;2022-12-29T16:57:28;11.90;63.20
14924;DHT22;7554;43.600;1.480;2022-12-29T16:59:59;11.80;99.90
14924;DHT22;7554;43.600;1.480;2022-12-29T17:02:29;12.00;99.90
14924;DHT22;7554;43.600;1.480;2022-12-29T17:04:58;11.90;99.90
14924;DHT22;7554;43.600;1.480;2022-12-29T17:07:29;12.00;99.90
14924;DHT22;7554;43.600;1.480;2022-12-29T17:09:57;12.10;99.90
14924;DHT22;7554;43.600;1.480;2022-12-29T17:12:26;12.10;99.90